Time;durP1;ratioP1;P1;durP2;ratioP2;P2;SDS_P1;SDS_P2;PMS_P1;PMS_P2;Temp;Humidity;BMP_temperature;BMP_pressure;BME280_temperature;BME280_humidity;BME280_pressure;Samples;Min_cycle;Max_cycle;Signal;HPM_P1;HPM_P2
2023/01/22 00:01:02;;;;;;;31.60;19.05;;;0.40;99.90;;;;;;5081712;28;20884;-61
2023/01/22 00:03:30;;;;;;;31.15;18.88;;;0.40;99.90;;;;;;5081381;28;20824;-61
2023/01/22 00:05:56;;;;;;;30.52;19.60;;;0.40;99.90;;;;;;5076502;28;20416;-61
2023/01/22 00:08:23;;;;;;;31.67;19.80;;;0.40;99.90;;;;;;5080451;28;20420;-62
2023/01/22 00:10:50;;;;;;;30.17;19.40;;;0.40;99.90;;;;;;5082328;28;20409;-62
2023/01/22 00:13:17;;;;;;;29.85;18.42;;;0.40;99.90;;;;;;5080485;28;20503;-62
2023/01/22 00:15:44;;;;;;;33.10;20.53;;;0.40;99.90;;;;;;5079576;28;20434;-62
2023/01/22 00:18:11;;;;;;;30.67;19.33;;;0.40;99.90;;;;;;5079386;28;20424;-61
2023/01/22 00:20:39;;;;;;;32.92;20.27;;;0.30;99.90;;;;;;5080378;28;20419;-62
2023/01/22 00:23:06;;;;;;;30.35;18.58;;;0.40;99.90;;;;;;5080872;28;20413;-62
2023/01/22 00:25:33;;;;;;;30.50;19.58;;;0.40;99.90;;;;;;5079945;28;20434;-62
2023/01/22 00:28:00;;;;;;;29.23;18.90;;;0.40;99.90;;;;;;5079030;28;20415;-62
2023/01/22 00:30:26;;;;;;;31.70;19.98;;;0.40;99.90;;;;;;5079720;28;20413;-62
2023/01/22 00:32:53;;;;;;;31.75;20.50;;;0.50;99.90;;;;;;5080020;28;20417;-61
2023/01/22 00:35:20;;;;;;;33.72;21.10;;;0.60;99.90;;;;;;5079239;28;20427;-62
2023/01/22 00:37:48;;;;;;;34.65;21.35;;;0.70;99.90;;;;;;5080050;28;20410;-62
2023/01/22 00:40:15;;;;;;;36.47;22.50;;;0.70;99.90;;;;;;5081250;28;20459;-62
2023/01/22 00:42:42;;;;;;;40.30;23.85;;;0.60;99.90;;;;;;5080638;28;20420;-62
2023/01/22 00:45:09;;;;;;;37.47;22.67;;;0.40;99.90;;;;;;5079261;28;20625;-62
2023/01/22 00:47:36;;;;;;;37.78;22.50;;;0.50;99.90;;;;;;5079158;28;20469;-61
2023/01/22 00:50:03;;;;;;;35.53;22.52;;;0.50;99.90;;;;;;5082760;28;20422;-62
2023/01/22 00:52:30;;;;;;;36.85;22.25;;;0.50;99.90;;;;;;5079053;28;20420;-61
2023/01/22 00:54:58;;;;;;;32.70;20.75;;;0.60;99.90;;;;;;5080958;28;20426;-62
2023/01/22 00:57:24;;;;;;;35.57;22.67;;;0.40;99.90;;;;;;5080342;28;20543;-62
2023/01/22 00:59:52;;;;;;;34.72;21.77;;;0.40;99.90;;;;;;5075443;28;20416;-62
2023/01/22 01:02:18;;;;;;;35.75;22.33;;;0.50;99.90;;;;;;5078865;28;20506;-62
2023/01/22 01:04:45;;;;;;;32.80;19.33;;;0.50;99.90;;;;;;5081141;28;20742;-62
2023/01/22 01:07:12;;;;;;;32.90;21.13;;;0.50;99.90;;;;;;5078385;28;20966;-62
2023/01/22 01:09:38;;;;;;;32.65;21.02;;;0.50;99.90;;;;;;5079403;28;20484;-62
2023/01/22 01:12:08;;;;;;;32.35;21.42;;;0.50;99.90;;;;;;5074337;28;20412;-62
2023/01/22 01:14:35;;;;;;;32.67;21.17;;;0.50;99.90;;;;;;5080036;28;20456;-62
2023/01/22 01:17:01;;;;;;;32.67;21.50;;;0.50;99.90;;;;;;5077887;28;20398;-62
2023/01/22 01:19:28;;;;;;;33.13;21.95;;;0.50;99.90;;;;;;5079242;28;20419;-62
2023/01/22 01:21:55;;;;;;;33.97;21.40;;;0.50;99.90;;;;;;5078588;28;20418;-62
2023/01/22 01:24:21;;;;;;;30.55;20.02;;;0.50;99.90;;;;;;5080736;28;20402;-62
2023/01/22 01:26:48;;;;;;;32.07;21.40;;;0.50;99.90;;;;;;5079346;28;20405;-62
2023/01/22 01:29:16;;;;;;;34.15;21.13;;;0.40;99.90;;;;;;5078515;28;20940;-62
2023/01/22 01:31:44;;;;;;;31.10;20.45;;;0.40;99.90;;;;;;5079071;28;20849;-62
2023/01/22 01:34:12;;;;;;;33.22;21.33;;;0.50;99.90;;;;;;5080962;28;20418;-62
2023/01/22 01:36:39;;;;;;;33.72;22.08;;;0.50;99.90;;;;;;5080929;28;20453;-61
2023/01/22 01:39:05;;;;;;;32.53;21.38;;;0.40;99.90;;;;;;5082105;28;20537;-62
2023/01/22 01:41:32;;;;;;;34.87;21.73;;;0.40;99.90;;;;;;5078847;28;20473;-62
2023/01/22 01:44:07;;;;;;;33.15;20.92;;;0.20;99.90;;;;;;5083098;28;20431;-62
2023/01/22 01:46:38;;;;;;;34.17;20.80;;;0.20;99.90;;;;;;5082464;28;20415;-62
2023/01/22 01:49:06;;;;;;;33.38;21.67;;;0.20;99.90;;;;;;5082127;28;20419;-61
2023/01/22 01:51:35;;;;;;;30.20;19.73;;;0.30;99.90;;;;;;5083714;28;20409;-62
2023/01/22 01:54:04;;;;;;;31.40;20.50;;;0.30;99.90;;;;;;5084522;28;20422;-62
2023/01/22 01:56:36;;;;;;;31.65;21.08;;;0.30;99.90;;;;;;5081261;28;21053;-61
2023/01/22 01:59:07;;;;;;;33.28;20.90;;;0.30;99.90;;;;;;5085013;28;20412;-62
2023/01/22 02:01:36;;;;;;;32.83;20.92;;;0.30;99.90;;;;;;5083440;28;20461;-61
2023/01/22 02:04:03;;;;;;;32.77;21.47;;;0.20;99.90;;;;;;5080969;28;20416;-62
2023/01/22 02:06:30;;;;;;;29.15;19.00;;;0.30;99.90;;;;;;5084048;28;20405;-62
2023/01/22 02:08:59;;;;;;;32.40;20.98;;;0.30;99.90;;;;;;5083969;28;20410;-62
2023/01/22 02:11:27;;;;;;;34.55;21.30;;;0.30;99.90;;;;;;5082254;28;20416;-61
2023/01/22 02:14:00;;;;;;;31.83;20.77;;;0.20;99.90;;;;;;5081937;28;20460;-62
2023/01/22 02:16:26;;;;;;;30.30;19.88;;;0.30;99.90;;;;;;5080303;28;20431;-62
2023/01/22 02:18:55;;;;;;;31.48;19.27;;;0.40;99.90;;;;;;5082752;28;20411;-62
2023/01/22 02:21:31;;;;;;;31.58;20.65;;;0.20;99.90;;;;;;5084767;28;20414;-62
2023/01/22 02:23:57;;;;;;;31.52;20.35;;;0.30;99.90;;;;;;5084490;28;20419;-62
2023/01/22 02:26:24;;;;;;;30.08;19.80;;;0.30;99.90;;;;;;5078431;28;20404;-62
2023/01/22 02:28:51;;;;;;;29.98;19.70;;;0.30;99.90;;;;;;5082708;28;20468;-62
2023/01/22 02:31:18;;;;;;;30.73;20.13;;;0.50;99.90;;;;;;5083438;28;20493;-62
2023/01/22 02:33:45;;;;;;;31.13;20.20;;;0.60;99.90;;;;;;5083251;28;20415;-62
2023/01/22 02:36:12;;;;;;;30.25;19.80;;;0.30;99.90;;;;;;5078773;28;20485;-62
2023/01/22 02:38:40;;;;;;;30.58;19.73;;;0.20;99.90;;;;;;5076270;28;20906;-62
2023/01/22 02:41:07;;;;;;;30.75;20.27;;;0.10;99.90;;;;;;5077206;28;20429;-62
2023/01/22 02:43:33;;;;;;;30.27;19.50;;;0.10;99.90;;;;;;5079431;28;20503;-62
2023/01/22 02:46:00;;;;;;;29.33;19.08;;;0.10;99.90;;;;;;5082322;28;20433;-63
2023/01/22 02:48:27;;;;;;;28.20;19.05;;;0.20;99.90;;;;;;5078972;28;20419;-62
2023/01/22 02:50:53;;;;;;;28.15;18.77;;;0.50;99.90;;;;;;5083538;28;20414;-63
2023/01/22 02:53:20;;;;;;;28.80;19.52;;;0.30;99.90;;;;;;5082344;28;20417;-62
2023/01/22 02:55:48;;;;;;;26.23;18.00;;;0.40;99.90;;;;;;5081016;28;20423;-62
2023/01/22 02:58:16;;;;;;;29.30;18.48;;;0.40;99.90;;;;;;5082233;28;20819;-62
2023/01/22 03:00:42;;;;;;;27.53;18.27;;;0.30;99.90;;;;;;5083459;28;20815;-62
2023/01/22 03:03:14;;;;;;;29.35;18.88;;;0.20;99.90;;;;;;5081684;28;20473;-62
2023/01/22 03:05:44;;;;;;;28.67;18.88;;;0.20;99.90;;;;;;5081235;28;20407;-62
2023/01/22 03:08:10;;;;;;;27.17;18.70;;;0.30;99.90;;;;;;5081890;28;20463;-62
2023/01/22 03:10:37;;;;;;;28.65;19.40;;;0.20;99.90;;;;;;5083316;28;20466;-61
2023/01/22 03:21:19;;;;;;;29.08;18.33;;;0.10;99.90;;;;;;5078238;28;20390;-62
2023/01/22 03:23:47;;;;;;;25.33;16.50;;;0.20;99.90;;;;;;5080236;28;20469;-61
2023/01/22 03:26:14;;;;;;;29.33;18.27;;;0.10;99.90;;;;;;5077225;28;20493;-62
2023/01/22 03:28:44;;;;;;;27.83;19.20;;;0.00;99.90;;;;;;5081471;28;20411;-62
2023/01/22 03:31:11;;;;;;;27.73;18.92;;;-0.10;99.90;;;;;;5082824;28;20769;-62
2023/01/22 03:33:39;;;;;;;27.85;18.40;;;0.00;99.90;;;;;;5082256;28;20815;-62
2023/01/22 03:36:08;;;;;;;27.98;19.58;;;0.00;99.90;;;;;;5079977;28;20424;-62
2023/01/22 03:38:34;;;;;;;29.13;19.42;;;0.00;99.90;;;;;;5080412;28;20409;-62
2023/01/22 03:41:03;;;;;;;27.97;17.57;;;-0.10;99.90;;;;;;5081632;28;20870;-62
2023/01/22 03:43:29;;;;;;;28.75;20.10;;;-0.10;99.90;;;;;;5079780;28;20415;-62
2023/01/22 03:46:02;;;;;;;29.52;19.90;;;0.10;99.90;;;;;;5080231;28;20954;-62
2023/01/22 03:48:29;;;;;;;28.25;19.52;;;0.00;99.90;;;;;;5080158;28;20407;-62
2023/01/22 03:50:56;;;;;;;30.27;20.13;;;0.00;99.90;;;;;;5080826;28;20403;-62
2023/01/22 03:53:23;;;;;;;31.50;20.33;;;-0.10;99.90;;;;;;5082712;28;20413;-62
2023/01/22 03:55:57;;;;;;;32.13;22.00;;;-0.10;99.90;;;;;;5081991;28;20834;-62
2023/01/22 03:58:24;;;;;;;32.45;21.45;;;-0.20;99.90;;;;;;5075585;28;20942;-62
2023/01/22 04:00:50;;;;;;;32.13;20.63;;;-0.10;99.90;;;;;;5079355;28;20411;-62
2023/01/22 04:03:18;;;;;;;32.35;20.63;;;0.00;99.90;;;;;;5079357;28;20936;-64
2023/01/22 04:05:45;;;;;;;32.40;21.00;;;0.00;99.90;;;;;;5083740;28;20794;-61
2023/01/22 04:08:12;;;;;;;33.17;21.53;;;0.00;99.90;;;;;;5079109;28;20946;-62
2023/01/22 04:10:38;;;;;;;35.30;22.58;;;-0.10;99.90;;;;;;5081822;28;20881;-62
2023/01/22 04:13:05;;;;;;;35.70;22.42;;;-0.10;99.90;;;;;;5081544;28;20463;-62
2023/01/22 04:15:32;;;;;;;33.80;22.30;;;-0.10;99.90;;;;;;5078698;28;20419;-62
2023/01/22 04:17:58;;;;;;;35.10;22.75;;;-0.10;99.90;;;;;;5080299;28;20417;-61
2023/01/22 04:20:26;;;;;;;33.55;22.05;;;0.00;99.90;;;;;;5082196;28;20398;-62
2023/01/22 04:22:53;;;;;;;34.97;22.17;;;-0.10;99.90;;;;;;5075830;28;20405;-61
2023/01/22 04:25:20;;;;;;;39.47;23.73;;;-0.20;99.90;;;;;;5080302;28;20407;-63
2023/01/22 04:27:46;;;;;;;36.03;23.55;;;-0.10;99.90;;;;;;5081674;28;20414;-62
2023/01/22 04:30:13;;;;;;;36.45;23.17;;;-0.10;99.90;;;;;;5080385;28;20824;-62
2023/01/22 04:32:40;;;;;;;35.93;22.80;;;-0.10;99.90;;;;;;5079905;28;20528;-62
2023/01/22 04:35:07;;;;;;;39.92;24.60;;;-0.20;99.90;;;;;;5081223;28;20467;-62
2023/01/22 04:37:35;;;;;;;37.88;23.05;;;-0.20;99.90;;;;;;5081000;28;20489;-62
2023/01/22 04:40:02;;;;;;;35.58;22.70;;;-0.20;99.90;;;;;;5078882;28;20411;-62
2023/01/22 04:42:29;;;;;;;37.53;23.00;;;-0.20;99.90;;;;;;5080435;28;20412;-61
2023/01/22 04:44:56;;;;;;;39.67;23.27;;;-0.30;99.90;;;;;;5081379;28;20771;-62
2023/01/22 04:47:22;;;;;;;39.28;24.83;;;-0.30;99.90;;;;;;5076556;28;20728;-62
2023/01/22 04:49:49;;;;;;;36.97;23.13;;;-0.30;99.90;;;;;;5079864;28;20412;-62
2023/01/22 04:52:16;;;;;;;37.47;23.30;;;-0.20;99.90;;;;;;5081532;28;20448;-61
2023/01/22 04:54:44;;;;;;;39.63;24.40;;;-0.20;99.90;;;;;;5079526;28;20901;-62
2023/01/22 04:57:11;;;;;;;39.38;24.90;;;-0.20;99.90;;;;;;5078897;28;20430;-62
2023/01/22 04:59:38;;;;;;;38.25;22.80;;;-0.20;99.90;;;;;;5080850;28;20413;-61
2023/01/22 05:02:05;;;;;;;35.65;23.20;;;-0.10;99.90;;;;;;5080047;28;20513;-62
2023/01/22 05:04:31;;;;;;;40.22;24.35;;;-0.20;99.90;;;;;;5076006;28;20412;-62
2023/01/22 05:06:58;;;;;;;40.13;25.10;;;-0.20;99.90;;;;;;5073341;28;20422;-62
2023/01/22 05:09:26;;;;;;;42.35;25.50;;;-0.30;99.90;;;;;;5076789;28;20445;-62
2023/01/22 05:11:54;;;;;;;42.53;25.48;;;-0.30;99.90;;;;;;5079927;28;20410;-62
2023/01/22 05:14:20;;;;;;;40.13;25.35;;;-0.30;99.90;;;;;;5078253;28;20423;-62
2023/01/22 05:16:47;;;;;;;42.90;25.35;;;-0.30;99.90;;;;;;5078052;28;20994;-62
2023/01/22 05:19:14;;;;;;;40.63;22.55;;;-0.30;99.90;;;;;;5079691;28;20418;-61
2023/01/22 05:21:41;;;;;;;42.05;24.60;;;-0.30;99.90;;;;;;5081295;28;20431;-63
2023/01/22 05:24:09;;;;;;;39.58;23.88;;;-0.20;99.90;;;;;;5079550;28;20817;-62
2023/01/22 05:26:35;;;;;;;38.08;23.50;;;-0.20;99.90;;;;;;5078372;28;20411;-62
2023/01/22 05:29:03;;;;;;;38.55;24.58;;;-0.20;99.90;;;;;;5080214;28;20956;-62
2023/01/22 05:31:30;;;;;;;39.20;24.08;;;-0.20;99.90;;;;;;5080518;28;21087;-62
2023/01/22 05:33:57;;;;;;;36.80;23.47;;;-0.10;99.90;;;;;;5078644;28;20420;-62
2023/01/22 05:36:24;;;;;;;36.33;22.70;;;-0.10;99.90;;;;;;5079593;28;20831;-62
2023/01/22 05:38:50;;;;;;;39.22;23.90;;;-0.20;99.90;;;;;;5080593;28;20421;-61
2023/01/22 05:41:17;;;;;;;38.60;23.35;;;-0.30;99.90;;;;;;5079176;28;20461;-62
2023/01/22 05:43:44;;;;;;;37.75;23.63;;;-0.30;99.90;;;;;;5078400;28;20415;-62
2023/01/22 05:46:12;;;;;;;37.50;23.35;;;-0.20;99.90;;;;;;5078555;28;20414;-61
2023/01/22 05:48:39;;;;;;;37.15;23.05;;;-0.20;99.90;;;;;;5080314;28;20461;-62
2023/01/22 05:51:07;;;;;;;38.83;24.33;;;-0.30;99.90;;;;;;5078554;28;20405;-62
2023/01/22 05:53:34;;;;;;;35.50;23.40;;;-0.10;99.90;;;;;;5079319;28;20411;-62
2023/01/22 05:56:02;;;;;;;36.85;22.70;;;-0.20;99.90;;;;;;5078524;28;20423;-62
2023/01/22 05:58:29;;;;;;;35.13;22.00;;;0.00;99.90;;;;;;5075593;28;20495;-62
2023/01/22 06:00:56;;;;;;;37.80;23.15;;;-0.20;99.90;;;;;;5079528;28;20411;-62
2023/01/22 06:03:24;;;;;;;36.47;22.80;;;-0.20;99.90;;;;;;5080808;28;20418;-62
2023/01/22 06:05:57;;;;;;;35.67;22.30;;;-0.20;99.90;;;;;;5079809;28;20442;-61
2023/01/22 06:08:24;;;;;;;34.80;21.83;;;-0.10;99.90;;;;;;5078420;28;20424;-62
2023/01/22 06:10:51;;;;;;;37.85;22.98;;;-0.20;99.90;;;;;;5080007;28;20410;-62
2023/01/22 06:13:17;;;;;;;33.38;21.52;;;-0.20;99.90;;;;;;5080548;28;20969;-62
2023/01/22 06:15:44;;;;;;;35.35;22.33;;;-0.10;99.90;;;;;;5077283;28;20817;-62
2023/01/22 06:18:11;;;;;;;31.90;20.90;;;-0.10;99.90;;;;;;5077907;28;20767;-62
2023/01/22 06:20:39;;;;;;;31.58;20.92;;;0.00;99.90;;;;;;5079979;28;20410;-62
2023/01/22 06:23:06;;;;;;;32.47;20.58;;;-0.10;99.90;;;;;;5079269;28;20484;-62
2023/01/22 06:25:33;;;;;;;31.67;20.73;;;0.00;99.90;;;;;;5081967;28;20989;-62
2023/01/22 06:27:59;;;;;;;33.03;20.77;;;-0.10;99.90;;;;;;5082837;28;20776;-62
2023/01/22 06:30:26;;;;;;;34.35;22.05;;;-0.20;99.90;;;;;;5083707;28;20410;-62
2023/01/22 06:32:53;;;;;;;34.15;21.25;;;-0.20;99.90;;;;;;5081588;28;20415;-61
2023/01/22 06:35:20;;;;;;;31.30;20.55;;;0.00;99.90;;;;;;5082163;28;20409;-61
2023/01/22 06:37:48;;;;;;;33.28;20.00;;;-0.10;99.90;;;;;;5083838;28;20421;-60
2023/01/22 06:40:15;;;;;;;34.30;20.42;;;-0.20;99.90;;;;;;5082347;28;20418;-60
2023/01/22 06:42:41;;;;;;;32.63;22.23;;;-0.20;99.90;;;;;;5081703;28;20419;-60
2023/01/22 06:45:09;;;;;;;33.50;20.73;;;-0.10;99.90;;;;;;5075766;28;20421;-59
2023/01/22 06:47:36;;;;;;;30.63;20.15;;;-0.10;99.90;;;;;;5080515;28;20413;-60
2023/01/22 06:50:02;;;;;;;30.83;20.87;;;-0.10;99.90;;;;;;5081442;28;20573;-59
2023/01/22 06:52:29;;;;;;;31.90;21.25;;;-0.10;99.90;;;;;;5082709;28;20935;-60
2023/01/22 06:54:57;;;;;;;31.65;21.58;;;0.00;99.90;;;;;;5083490;28;20896;-60
2023/01/22 06:57:24;;;;;;;33.00;21.93;;;0.00;99.90;;;;;;5083404;28;20897;-61
2023/01/22 06:59:50;;;;;;;29.70;19.70;;;0.00;99.90;;;;;;5079939;28;20413;-59
2023/01/22 07:02:18;;;;;;;33.80;20.23;;;0.10;99.90;;;;;;5083099;28;20438;-61
2023/01/22 07:04:45;;;;;;;29.35;19.80;;;-0.10;99.90;;;;;;5081264;28;20410;-59
2023/01/22 07:07:12;;;;;;;32.38;21.13;;;-0.10;99.90;;;;;;5082672;28;20414;-60
2023/01/22 07:09:39;;;;;;;32.03;20.95;;;-0.10;99.90;;;;;;5081336;28;20407;-60
2023/01/22 07:12:07;;;;;;;34.72;22.10;;;-0.10;99.90;;;;;;5081398;28;20424;-59
2023/01/22 07:14:34;;;;;;;32.45;21.42;;;-0.10;99.90;;;;;;5080599;28;20441;-60
2023/01/22 07:17:00;;;;;;;36.72;22.73;;;-0.20;99.90;;;;;;5081074;28;20568;-60
2023/01/22 07:19:27;;;;;;;35.75;22.88;;;-0.20;99.90;;;;;;5082441;28;20463;-59
2023/01/22 07:21:54;;;;;;;35.20;23.50;;;-0.20;99.90;;;;;;5081358;28;20445;-60
2023/01/22 07:24:20;;;;;;;34.63;21.98;;;-0.20;99.90;;;;;;5081153;28;20411;-60
2023/01/22 07:26:48;;;;;;;33.92;21.52;;;0.00;99.90;;;;;;5083038;28;20953;-60
2023/01/22 07:29:16;;;;;;;35.33;22.38;;;-0.10;99.90;;;;;;5081181;28;20415;-60
2023/01/22 07:31:43;;;;;;;35.83;22.93;;;-0.10;99.90;;;;;;5080621;28;20443;-60
2023/01/22 07:34:09;;;;;;;35.88;22.65;;;-0.10;99.90;;;;;;5077033;28;20407;-60
2023/01/22 07:36:36;;;;;;;34.37;21.80;;;-0.10;99.90;;;;;;5081135;28;20416;-59
2023/01/22 07:39:04;;;;;;;31.77;18.27;;;-0.10;99.90;;;;;;5084613;28;20410;-60
2023/01/22 07:41:31;;;;;;;38.15;23.27;;;-0.20;99.90;;;;;;5081609;28;20446;-59
2023/01/22 07:43:59;;;;;;;32.93;21.20;;;-0.20;99.90;;;;;;5083113;28;20467;-59
2023/01/22 07:46:27;;;;;;;34.17;21.77;;;-0.10;99.90;;;;;;5076987;28;20411;-59
2023/01/22 07:48:54;;;;;;;34.33;21.48;;;-0.10;99.90;;;;;;5083042;28;20406;-60
2023/01/22 07:51:21;;;;;;;32.78;21.30;;;-0.20;99.90;;;;;;5080582;28;20442;-60
2023/01/22 07:53:47;;;;;;;33.88;22.00;;;-0.10;99.90;;;;;;5080524;28;20812;-60
2023/01/22 07:56:14;;;;;;;32.22;20.50;;;0.00;99.90;;;;;;5082191;28;20862;-60
2023/01/22 07:58:41;;;;;;;31.25;20.73;;;0.00;99.90;;;;;;5080815;28;20427;-60
2023/01/22 08:01:09;;;;;;;31.45;19.73;;;0.10;99.90;;;;;;5079748;28;20415;-60
2023/01/22 08:03:38;;;;;;;32.20;20.35;;;0.10;99.90;;;;;;5081889;28;20444;-60
2023/01/22 08:06:08;;;;;;;35.37;21.07;;;0.00;99.90;;;;;;5082451;28;20414;-60
2023/01/22 08:08:35;;;;;;;31.25;20.63;;;0.00;99.90;;;;;;5077076;28;20839;-60
2023/01/22 08:11:01;;;;;;;33.72;22.23;;;0.00;99.90;;;;;;5080020;28;20952;-60
2023/01/22 08:13:28;;;;;;;32.42;21.02;;;0.00;99.90;;;;;;5082049;28;20423;-59
2023/01/22 08:15:55;;;;;;;33.03;21.17;;;0.10;99.90;;;;;;5070444;28;20436;-60
2023/01/22 08:18:22;;;;;;;33.72;21.20;;;0.00;99.90;;;;;;5076929;28;20429;-60
2023/01/22 08:20:50;;;;;;;32.13;21.10;;;0.00;99.90;;;;;;5080073;28;20439;-59
2023/01/22 08:23:17;;;;;;;32.17;20.57;;;0.00;99.90;;;;;;5079308;28;20835;-59
2023/01/22 08:25:43;;;;;;;31.05;20.05;;;0.10;99.90;;;;;;5082342;28;20439;-59
2023/01/22 08:28:10;;;;;;;33.78;21.42;;;0.00;99.90;;;;;;5075170;28;20429;-60
2023/01/22 08:30:37;;;;;;;31.23;19.45;;;0.00;99.90;;;;;;5078554;28;20445;-59
2023/01/22 08:33:03;;;;;;;30.33;19.75;;;0.20;99.90;;;;;;5077437;28;20435;-60
2023/01/22 08:35:31;;;;;;;33.78;20.80;;;0.00;99.90;;;;;;5078973;28;20412;-60
2023/01/22 08:38:00;;;;;;;28.63;19.48;;;0.10;99.90;;;;;;5080610;28;20475;-60
2023/01/22 08:40:27;;;;;;;29.83;19.40;;;0.20;99.90;;;;;;5081159;28;20405;-60
2023/01/22 08:42:54;;;;;;;28.00;19.13;;;0.40;99.90;;;;;;5079128;28;20418;-60
2023/01/22 08:45:22;;;;;;;30.45;20.02;;;0.40;99.90;;;;;;5077728;28;20410;-59
2023/01/22 08:47:50;;;;;;;29.75;19.88;;;0.20;99.90;;;;;;5080898;28;20409;-60
2023/01/22 08:50:17;;;;;;;27.98;18.92;;;0.40;99.90;;;;;;5075021;28;20487;-60
2023/01/22 08:52:44;;;;;;;27.30;18.92;;;0.40;99.90;;;;;;5078205;28;20417;-60
2023/01/22 08:55:12;;;;;;;30.47;19.97;;;0.40;99.90;;;;;;5077546;28;20414;-61
2023/01/22 08:57:38;;;;;;;31.00;20.80;;;0.40;99.90;;;;;;5077282;28;20542;-61
2023/01/22 09:00:07;;;;;;;30.00;20.30;;;0.30;99.90;;;;;;5075975;28;20410;-62
2023/01/22 09:02:34;;;;;;;30.50;20.37;;;0.40;99.90;;;;;;5079643;28;20492;-62
2023/01/22 09:05:01;;;;;;;29.70;19.63;;;0.50;99.90;;;;;;5079221;28;20462;-62
2023/01/22 09:07:29;;;;;;;30.93;20.37;;;0.40;99.90;;;;;;5080990;28;21233;-60
2023/01/22 09:09:56;;;;;;;30.95;20.35;;;0.40;99.90;;;;;;5080673;28;20892;-59
2023/01/22 09:12:24;;;;;;;28.57;18.87;;;0.40;99.90;;;;;;5077945;28;20762;-60
2023/01/22 09:14:50;;;;;;;30.47;19.77;;;0.30;99.90;;;;;;5078786;28;20416;-60
2023/01/22 09:17:17;;;;;;;30.70;20.38;;;0.30;99.90;;;;;;5078035;28;20918;-60
2023/01/22 09:19:44;;;;;;;33.53;21.95;;;0.40;99.90;;;;;;5080323;28;20416;-61
2023/01/22 09:22:10;;;;;;;33.58;22.08;;;0.30;99.90;;;;;;5080810;28;20471;-62
2023/01/22 09:24:37;;;;;;;30.35;20.58;;;0.40;99.90;;;;;;5078216;28;20488;-61
2023/01/22 09:27:04;;;;;;;29.98;19.83;;;0.40;99.90;;;;;;5080093;28;20422;-62
2023/01/22 09:29:32;;;;;;;32.45;20.75;;;0.40;99.90;;;;;;5081270;28;20406;-62
2023/01/22 09:31:58;;;;;;;28.98;19.85;;;0.40;99.90;;;;;;5081375;28;20405;-62
2023/01/22 09:34:25;;;;;;;28.90;19.70;;;0.50;99.90;;;;;;5079679;28;20942;-62
2023/01/22 09:36:52;;;;;;;26.52;17.00;;;0.50;99.90;;;;;;5078616;28;20814;-62
2023/01/22 09:39:19;;;;;;;27.83;19.20;;;0.50;99.90;;;;;;5079354;28;20916;-62
2023/01/22 09:41:51;;;;;;;29.13;19.13;;;0.40;99.90;;;;;;5081339;28;20822;-62
2023/01/22 09:44:20;;;;;;;29.83;20.02;;;0.50;99.90;;;;;;5076831;28;20407;-62
2023/01/22 09:46:49;;;;;;;27.13;19.10;;;0.60;99.90;;;;;;5080517;28;20470;-61
2023/01/22 09:49:18;;;;;;;28.13;19.70;;;0.40;99.90;;;;;;5079309;28;20411;-62
2023/01/22 09:51:48;;;;;;;26.67;18.95;;;0.40;99.90;;;;;;5078513;28;20935;-61
2023/01/22 09:54:16;;;;;;;24.48;16.02;;;0.40;99.90;;;;;;5079252;28;20408;-60
2023/01/22 09:56:48;;;;;;;27.85;19.05;;;0.40;99.90;;;;;;5080868;28;20414;-61
2023/01/22 09:59:18;;;;;;;27.52;18.77;;;0.40;99.90;;;;;;5083796;28;20419;-62
2023/01/22 10:01:50;;;;;;;28.80;19.00;;;0.40;99.90;;;;;;5081910;28;20419;-62
2023/01/22 10:04:26;;;;;;;31.38;20.48;;;0.50;99.90;;;;;;5083129;28;20529;-62
2023/01/22 10:06:56;;;;;;;31.95;20.13;;;0.30;99.90;;;;;;5079393;28;20894;-60
2023/01/22 10:09:24;;;;;;;30.05;20.30;;;0.40;99.90;;;;;;5082458;28;20411;-61
2023/01/22 10:11:53;;;;;;;27.40;18.95;;;0.40;99.90;;;;;;5085494;28;20512;-61
2023/01/22 10:14:23;;;;;;;31.05;20.05;;;0.60;99.90;;;;;;5083409;28;20445;-62
2023/01/22 10:16:51;;;;;;;27.52;18.55;;;0.70;99.90;;;;;;5081632;28;20416;-61
2023/01/22 10:19:23;;;;;;;27.23;16.87;;;0.50;99.90;;;;;;5082232;28;20431;-61
2023/01/22 10:21:53;;;;;;;29.30;19.90;;;0.50;99.90;;;;;;5079689;28;20481;-62
2023/01/22 10:24:20;;;;;;;29.40;19.90;;;0.50;99.90;;;;;;5081858;28;20416;-62
2023/01/22 10:26:50;;;;;;;28.00;18.88;;;0.60;99.90;;;;;;5083969;28;20413;-61
2023/01/22 10:29:24;;;;;;;25.95;18.38;;;0.70;99.90;;;;;;5083736;28;20418;-60
2023/01/22 10:31:55;;;;;;;25.98;16.88;;;0.80;99.90;;;;;;5080422;28;20407;-62
2023/01/22 10:34:29;;;;;;;26.88;18.00;;;0.80;99.90;;;;;;5079145;28;20427;-62
2023/01/22 10:36:59;;;;;;;25.27;17.50;;;0.70;99.90;;;;;;5082347;28;20422;-61
2023/01/22 10:39:27;;;;;;;26.90;18.85;;;0.70;99.90;;;;;;5079659;28;21118;-61
2023/01/22 10:42:01;;;;;;;26.73;17.38;;;0.70;99.90;;;;;;5082680;28;20781;-61
2023/01/22 10:44:27;;;;;;;27.17;18.23;;;0.70;99.90;;;;;;5078855;28;20408;-61
2023/01/22 10:47:06;;;;;;;20.70;13.70;;;0.70;99.90;;;;;;5081570;28;20414;-61
2023/01/22 10:49:33;;;;;;;25.85;17.52;;;0.70;99.90;;;;;;5080744;28;20414;-62
2023/01/22 10:52:05;;;;;;;28.65;19.60;;;0.70;99.90;;;;;;5081399;28;20416;-62
2023/01/22 10:54:35;;;;;;;28.10;19.63;;;0.80;99.90;;;;;;5082583;28;20410;-62
2023/01/22 10:57:07;;;;;;;24.55;15.85;;;0.80;99.90;;;;;;5084406;28;20413;-62
2023/01/22 10:59:34;;;;;;;28.17;20.10;;;0.80;99.90;;;;;;5082630;28;20498;-61
2023/01/22 11:02:11;;;;;;;26.77;18.35;;;0.80;99.90;;;;;;5081118;28;20411;-62
2023/01/22 11:04:37;;;;;;;28.10;19.13;;;0.80;99.90;;;;;;5081648;28;20416;-62
2023/01/22 11:07:07;;;;;;;29.13;19.35;;;0.70;99.90;;;;;;5077547;28;20423;-62
2023/01/22 11:09:40;;;;;;;26.35;18.63;;;0.80;99.90;;;;;;5081137;28;20412;-62
2023/01/22 11:12:15;;;;;;;28.20;19.55;;;1.00;99.90;;;;;;5078833;28;20452;-61
2023/01/22 11:14:42;;;;;;;27.58;19.55;;;0.90;99.90;;;;;;5079744;28;20481;-62
2023/01/22 11:17:17;;;;;;;28.20;19.13;;;0.90;99.90;;;;;;5072751;28;20411;-61
2023/01/22 11:19:51;;;;;;;27.05;19.20;;;0.80;99.90;;;;;;5082589;28;20435;-61
2023/01/22 11:22:26;;;;;;;26.95;19.67;;;0.80;99.90;;;;;;5080179;28;20420;-62
2023/01/22 11:24:53;;;;;;;28.15;18.52;;;0.80;99.90;;;;;;5078107;28;20407;-66
2023/01/22 11:27:51;;;;;;;27.67;18.98;;;0.70;99.90;;;;;;5080065;28;20412;-65
2023/01/22 11:30:48;;;;;;;25.92;18.08;;;0.80;99.90;;;;;;5067714;28;20424;-65
2023/01/22 11:33:39;;;;;;;28.67;18.88;;;0.80;99.90;;;;;;5081848;28;21077;-65
2023/01/22 11:36:10;;;;;;;27.20;17.47;;;0.80;99.90;;;;;;5077105;28;20882;-63
2023/01/22 11:38:48;;;;;;;28.95;19.15;;;0.80;99.90;;;;;;5081077;28;20423;-63
2023/01/22 11:41:39;;;;;;;26.30;18.58;;;0.80;99.90;;;;;;5078496;28;20415;-65
2023/01/22 11:44:41;;;;;;;27.33;19.20;;;0.70;99.90;;;;;;5081262;28;20438;-65
2023/01/22 11:47:57;;;;;;;30.08;20.15;;;0.70;99.90;;;;;;5066209;28;20469;-64
2023/01/22 11:50:30;;;;;;;30.17;20.70;;;0.70;99.90;;;;;;5064980;28;20443;-65
2023/01/22 11:53:11;;;;;;;31.60;20.08;;;0.70;99.90;;;;;;5078547;28;20407;-66
2023/01/22 11:56:00;;;;;;;29.08;18.95;;;0.70;99.90;;;;;;5077609;28;20421;-67
2023/01/22 11:58:36;;;;;;;29.60;20.50;;;0.60;99.90;;;;;;5079163;28;20425;-66
2023/01/22 12:01:17;;;;;;;30.27;20.03;;;0.60;99.90;;;;;;5077372;28;20540;-66
2023/01/22 12:04:13;;;;;;;31.55;21.15;;;0.60;99.90;;;;;;5076606;28;20412;-64
2023/01/22 12:07:01;;;;;;;30.73;21.00;;;0.70;99.90;;;;;;5080107;28;20463;-66
2023/01/22 12:09:35;;;;;;;31.15;20.45;;;0.80;99.90;;;;;;5073297;28;20414;-65
2023/01/22 12:12:25;;;;;;;31.17;19.57;;;0.90;99.90;;;;;;5082180;28;20498;-69
2023/01/22 12:15:05;;;;;;;33.20;21.45;;;0.90;99.90;;;;;;5080562;28;20405;-63
2023/01/22 12:17:46;;;;;;;33.42;22.08;;;0.80;99.90;;;;;;5080736;28;21134;-69
2023/01/22 12:20:49;;;;;;;35.78;21.17;;;1.10;99.90;;;;;;5078545;28;20422;-65
2023/01/22 12:23:21;;;;;;;29.95;20.23;;;1.20;99.90;;;;;;5066050;28;20415;-65
2023/01/22 12:25:52;;;;;;;30.63;20.50;;;1.20;99.90;;;;;;5079230;28;20418;-66
2023/01/22 12:28:24;;;;;;;30.27;20.27;;;1.10;99.90;;;;;;5080139;28;20463;-65
2023/01/22 12:30:58;;;;;;;31.42;20.27;;;1.20;99.90;;;;;;5079148;28;20408;-65
2023/01/22 12:33:28;;;;;;;30.60;20.88;;;1.30;99.90;;;;;;5079755;28;20418;-65
2023/01/22 12:35:59;;;;;;;29.90;19.88;;;1.10;99.90;;;;;;5076422;28;20748;-65
2023/01/22 12:38:50;;;;;;;29.00;20.05;;;1.10;99.90;;;;;;5078790;28;20771;-65
2023/01/22 12:41:40;;;;;;;30.48;20.23;;;1.20;99.90;;;;;;5059856;28;20428;-67
2023/01/22 12:44:19;;;;;;;32.47;21.17;;;1.10;99.90;;;;;;5071924;28;20411;-64
2023/01/22 12:46:56;;;;;;;30.17;19.88;;;0.90;99.90;;;;;;5073946;28;20411;-64
2023/01/22 12:49:23;;;;;;;30.17;20.03;;;1.00;99.90;;;;;;5084822;28;20515;-64
2023/01/22 12:51:51;;;;;;;30.88;21.48;;;0.90;99.90;;;;;;5084409;28;20417;-65